• Join FlightAware (Why Join?)
  • Login
  • US Flag 
04:24AM EDT


 

Airport Tracker/Info


-or-


 

Live Flight TrackerFlight Track Log ✈ VNR161 ✈ 10-May-2013 ✈ KMCC - KSNA

Flight Track Log - Related Links

Times and Time Zones

All times are in EDT time to prevent confusion due to time zone crossing. See the VNR161 flight status page for this flight to view local times or setup timezone preferences in your user account.

Time Position Orientation Groundspeed Altitude Reporting Facility
EDT Latitude Longitude Course Direction KTS MPH feet Rate Location/Type
05:07PM 38.6333 -121.4000 149° Southeast 163 188 1,900  Level Northern Cal TRACON
05:08PM 38.5833 -121.3833 165° South 181 208 3,700 1,680 Climbing Northern Cal TRACON
05:09PM 38.5631 -121.3386 120° Southeast 191 220 5,000 1,800 Climbing Oakland Center
05:10PM 38.5278 -121.2764 126° Southeast 210 242 7,300 2,580 Climbing Oakland Center
05:11PM 38.4850 -121.2000 126° Southeast 220 253 10,300 2,520 Climbing Oakland Center
05:12PM 38.2664 -121.0963 149° Southeast  Level Estimated
05:12PM 38.4564 -121.1464 124° Southeast 215 247 12,500  Level Oakland Center
05:13PM 38.4125 -121.0672 125° Southeast 229 264 14,900 2,100 Climbing Oakland Center
05:14PM 38.3725 -120.9950 125° Southeast 247 284 16,900 1,800 Climbing Oakland Center
05:15PM 38.3308 -120.9208 126° Southeast 258 297 18,600 1,800 Climbing Oakland Center
05:16PM 38.2861 -120.8461 127° Southeast 265 305 20,600 1,800 Climbing Oakland Center
05:17PM 38.2300 -120.7769 136° Southeast 288 331 22,300 1,680 Climbing Oakland Center
05:18PM 38.1583 -120.7272 151° Southeast 294 338 24,100 1,560 Climbing Oakland Center
05:19PM 38.0825 -120.6761 152° Southeast 307 353 25,600 1,500 Climbing Oakland Center
05:20PM 38.0025 -120.6244 153° Southeast 320 368 27,200 1,560 Climbing Oakland Center
05:21PM 37.9025 -120.5594 153° Southeast 335 386 28,900 1,440 Climbing Oakland Center
05:22PM 37.8172 -120.5047 153° Southeast 343 395 30,200 1,140 Climbing Oakland Center
05:23PM 37.7308 -120.4492 153° Southeast 347 399 31,300 1,020 Climbing Oakland Center
05:24PM 37.6411 -120.3917 153° Southeast 358 412 32,300 780 Climbing Oakland Center
05:25PM 37.5511 -120.3350 153° Southeast 362 417 33,000 300 Climbing Oakland Center
05:26PM 37.4561 -120.2736 153° Southeast 383 441 33,000  Level Oakland Center
05:27PM 37.3572 -120.2114 153° Southeast 396 456 33,000  Level Oakland Center
05:28PM 37.2533 -120.1500 155° Southeast 406 467 33,000  Level Oakland Center
05:29PM 37.1297 -120.0717 153° Southeast 414 476 33,000  Level Oakland Center
05:30PM 37.0353 -120.0111 153° Southeast 413 475 33,000  Level Oakland Center
05:31PM 36.9317 -119.9464 153° Southeast 415 478 33,000  Level Oakland Center
05:32PM 36.8278 -119.8803 153° Southeast 416 479 33,000  Level Oakland Center
05:33PM 36.7219 -119.8122 153° Southeast 424 488 33,000  Level Oakland Center
05:34PM 36.5964 -119.7336 153° Southeast 418 481 33,000  Level Oakland Center
05:35PM 36.4919 -119.6678 153° Southeast 420 483 33,000 -240 Level Oakland Center
05:36PM 36.3864 -119.6022 153° Southeast 423 487 32,600 -720 Descending Oakland Center
05:37PM 36.2786 -119.5358 154° Southeast 430 495 31,600 -1,020 Descending Oakland Center
05:38PM 36.1703 -119.4689 153° Southeast 434 499 30,600 -1,020 Descending Oakland Center
05:39PM 36.0622 -119.4028 154° Southeast 433 498 29,600 -1,020 Descending Oakland Center
05:41PM 35.9550 -119.3392 154° Southeast 425 489 28,600 -1,020 Descending Oakland Center
05:42PM 35.8475 -119.2742 154° Southeast 424 488 27,600 -1,080 Descending Oakland Center
05:43PM 35.7222 -119.1978 154° Southeast 421 484 26,400 -1,080 Descending Oakland Center
05:44PM 35.6225 -119.1378 154° Southeast 408 470 25,400 -960 Descending Oakland Center
05:45PM 35.5433 -119.0897 154° Southeast 396 456 24,600 -960 Descending Los Angeles Center
05:46PM 35.4450 -119.0308 154° Southeast 394 453 23,600 -1,020 Descending Los Angeles Center
05:47PM 35.3489 -118.9725 154° Southeast 388 447 22,600 -1,080 Descending Los Angeles Center
05:48PM 35.2356 -118.9039 154° Southeast 381 438 21,400 -1,140 Descending Los Angeles Center
05:49PM 35.1406 -118.8489 155° Southeast 378 435 20,300 -1,320 Descending Los Angeles Center
05:50PM 35.0528 -118.7961 154° Southeast 355 409 18,700 -1,500 Descending Los Angeles Center
05:51PM 34.9700 -118.7469 154° Southeast 335 386 17,300 -1,500 Descending Los Angeles Center
05:52PM 34.8781 -118.6942 155° Southeast 336 387 15,600 -1,620 Descending Los Angeles Center
05:53PM 34.7969 -118.6458 154° Southeast 324 373 14,000 -1,260 Descending Los Angeles Center
05:54PM 34.7211 -118.6000 154° Southeast 301 346 13,100 -480 Descending Los Angeles Center
05:55PM 34.6442 -118.5550 154° Southeast 311 358 13,100 -180 Level Los Angeles Center
05:56PM 34.5506 -118.4994 154° Southeast 315 362 12,800 -540 Descending Los Angeles Center
05:57PM 34.4733 -118.4547 154° Southeast 308 354 12,100 -540 Descending Los Angeles Center
05:58PM 34.3964 -118.4100 154° Southeast 304 350 11,700 -540 Descending Los Angeles Center
05:59PM 34.3242 -118.3675 154° Southeast 292 336 11,000 -360 Descending Los Angeles Center
06:00PM 34.2503 -118.3231 154° Southeast 293 337 11,000  Level Los Angeles Center
06:01PM 34.1719 -118.2781 155° Southeast 306 352 11,000  Level Los Angeles Center
06:02PM 34.0803 -118.2247 154° Southeast 305 351 11,000 -360 Level Los Angeles Center
06:03PM 34.0036 -118.1803 154° Southeast 304 350 10,300 -840 Descending Los Angeles Center
06:04PM 33.9256 -118.1392 156° South 304 350 9,300 -1,020 Descending Los Angeles Center
06:05PM 33.8425 -118.1439 183° South 295 339 8,300 -840 Descending Los Angeles Center
06:06PM 33.7625 -118.1689 195° South 293 337 7,600 -840 Descending Los Angeles Center
06:07PM 33.6883 -118.1417 163° South 285 328 6,600 -1,080 Descending Los Angeles Center
06:08PM 33.6500 -118.1000 138° Southeast 276 318 5,800 -960 Descending Southern California TRACON
06:09PM 33.6500 -118.0000 90° East 262 302 5,000 -420 Descending Southern California TRACON
06:10PM 33.6667 -117.9500 68° East 200 230 5,000  Level Southern California TRACON
06:11PM 33.7167 -117.9333 15° North 189 217 5,000 -540 Level Southern California TRACON
06:12PM 33.7667 -117.9000 29° Northeast 188 216 4,000 -1,020 Descending Southern California TRACON
06:13PM 33.8000 -117.8500 51° Northeast 199 229 3,000 -540 Descending Southern California TRACON
06:14PM 33.7833 -117.8167 121° Southeast 157 181 3,000 -360 Level Southern California TRACON
06:15PM 33.7500 -117.8333 203° Southwest 141 162 2,300 -1,080 Descending Southern California TRACON
06:16PM 33.7000 -117.8500 195° South 149 171 900 -1,440 Descending Southern California TRACON